sensor_id;sensor_type;location;lat;lon;timestamp;temperature;humidity
25939;DHT22;13739;51.172;4.466;2022-09-09T00:00:25;15.20;99.90
25939;DHT22;13739;51.172;4.466;2022-09-09T00:02:55;15.20;99.90
25939;DHT22;13739;51.172;4.466;2022-09-09T00:05:55;15.10;99.90
25939;DHT22;13739;51.172;4.466;2022-09-09T00:08:21;15.00;99.90
25939;DHT22;13739;51.172;4.466;2022-09-09T00:10:54;15.00;99.90
25939;DHT22;13739;51.172;4.466;2022-09-09T00:13:50;15.00;99.90
25939;DHT22;13739;51.172;4.466;2022-09-09T00:16:21;15.00;99.90
25939;DHT22;13739;51.172;4.466;2022-09-09T00:19:06;15.00;99.90
25939;DHT22;13739;51.172;4.466;2022-09-09T00:21:37;15.00;99.90
25939;DHT22;13739;51.172;4.466;2022-09-09T00:24:24;15.00;99.90
25939;DHT22;13739;51.172;4.466;2022-09-09T00:27:04;14.90;99.90
25939;DHT22;13739;51.172;4.466;2022-09-09T00:30:14;14.90;99.90
25939;DHT22;13739;51.172;4.466;2022-09-09T00:32:39;14.90;99.90
25939;DHT22;13739;51.172;4.466;2022-09-09T00:37:44;14.90;99.90
25939;DHT22;13739;51.172;4.466;2022-09-09T00:40:37;15.00;99.90
25939;DHT22;13739;51.172;4.466;2022-09-09T00:48:41;15.00;99.90
25939;DHT22;13739;51.172;4.466;2022-09-09T00:59:47;15.20;99.90
25939;DHT22;13739;51.172;4.466;2022-09-09T01:02:29;15.10;99.90
25939;DHT22;13739;51.172;4.466;2022-09-09T01:05:13;15.20;99.90
25939;DHT22;13739;51.172;4.466;2022-09-09T01:07:44;15.10;99.90
25939;DHT22;13739;51.172;4.466;2022-09-09T01:10:24;15.10;99.90
25939;DHT22;13739;51.172;4.466;2022-09-09T01:12:55;15.10;99.90
25939;DHT22;13739;51.172;4.466;2022-09-09T01:15:29;15.10;99.90
25939;DHT22;13739;51.172;4.466;2022-09-09T01:18:04;15.00;99.90
25939;DHT22;13739;51.172;4.466;2022-09-09T01:21:13;15.00;99.90
25939;DHT22;13739;51.172;4.466;2022-09-09T01:26:39;14.80;99.90
25939;DHT22;13739;51.172;4.466;2022-09-09T01:29:17;14.80;99.90
25939;DHT22;13739;51.172;4.466;2022-09-09T01:31:54;14.80;99.90
25939;DHT22;13739;51.172;4.466;2022-09-09T01:34:21;14.80;99.90
25939;DHT22;13739;51.172;4.466;2022-09-09T01:37:02;14.70;99.90
25939;DHT22;13739;51.172;4.466;2022-09-09T01:39:36;14.80;99.90
25939;DHT22;13739;51.172;4.466;2022-09-09T01:42:04;14.70;99.90
25939;DHT22;13739;51.172;4.466;2022-09-09T01:44:30;14.80;99.90
25939;DHT22;13739;51.172;4.466;2022-09-09T01:46:56;14.90;99.90
25939;DHT22;13739;51.172;4.466;2022-09-09T01:49:22;14.90;99.90
25939;DHT22;13739;51.172;4.466;2022-09-09T01:51:54;14.80;99.90
25939;DHT22;13739;51.172;4.466;2022-09-09T01:54:21;14.80;99.90
25939;DHT22;13739;51.172;4.466;2022-09-09T02:05:22;14.90;99.90
25939;DHT22;13739;51.172;4.466;2022-09-09T02:08:42;14.90;99.90
25939;DHT22;13739;51.172;4.466;2022-09-09T02:11:00;14.80;99.90
25939;DHT22;13739;51.172;4.466;2022-09-09T02:13:29;14.70;99.90
25939;DHT22;13739;51.172;4.466;2022-09-09T02:16:00;14.70;99.90
25939;DHT22;13739;51.172;4.466;2022-09-09T02:18:32;14.80;99.90
25939;DHT22;13739;51.172;4.466;2022-09-09T02:21:01;14.80;99.90
25939;DHT22;13739;51.172;4.466;2022-09-09T02:23:28;14.80;99.90
25939;DHT22;13739;51.172;4.466;2022-09-09T02:25:56;14.70;99.90
25939;DHT22;13739;51.172;4.466;2022-09-09T02:28:25;14.60;99.90
25939;DHT22;13739;51.172;4.466;2022-09-09T02:30:53;14.50;99.90
25939;DHT22;13739;51.172;4.466;2022-09-09T02:33:23;14.60;99.90
25939;DHT22;13739;51.172;4.466;2022-09-09T02:35:51;14.70;99.90
25939;DHT22;13739;51.172;4.466;2022-09-09T02:38:19;14.60;99.90
25939;DHT22;13739;51.172;4.466;2022-09-09T02:40:46;14.60;99.90
25939;DHT22;13739;51.172;4.466;2022-09-09T02:43:14;14.60;99.90
25939;DHT22;13739;51.172;4.466;2022-09-09T02:45:47;14.80;99.90
25939;DHT22;13739;51.172;4.466;2022-09-09T02:48:35;14.80;99.90
25939;DHT22;13739;51.172;4.466;2022-09-09T02:51:13;14.70;99.90
25939;DHT22;13739;51.172;4.466;2022-09-09T02:56:43;14.90;99.90
25939;DHT22;13739;51.172;4.466;2022-09-09T02:59:11;14.70;99.90
25939;DHT22;13739;51.172;4.466;2022-09-09T03:01:37;14.60;99.90
25939;DHT22;13739;51.172;4.466;2022-09-09T03:04:05;14.60;99.90
25939;DHT22;13739;51.172;4.466;2022-09-09T03:06:31;14.70;99.90
25939;DHT22;13739;51.172;4.466;2022-09-09T03:08:56;14.90;99.90
25939;DHT22;13739;51.172;4.466;2022-09-09T03:11:26;14.70;99.90
25939;DHT22;13739;51.172;4.466;2022-09-09T03:13:53;14.70;99.90
25939;DHT22;13739;51.172;4.466;2022-09-09T03:16:24;14.70;99.90
25939;DHT22;13739;51.172;4.466;2022-09-09T03:18:49;14.60;99.90
25939;DHT22;13739;51.172;4.466;2022-09-09T03:21:15;14.60;99.90
25939;DHT22;13739;51.172;4.466;2022-09-09T03:23:41;14.70;99.90
25939;DHT22;13739;51.172;4.466;2022-09-09T03:26:07;14.70;99.90
25939;DHT22;13739;51.172;4.466;2022-09-09T03:28:33;14.70;99.90
25939;DHT22;13739;51.172;4.466;2022-09-09T03:31:04;14.80;99.90
25939;DHT22;13739;51.172;4.466;2022-09-09T03:33:30;14.80;99.90
25939;DHT22;13739;51.172;4.466;2022-09-09T03:35:57;14.90;99.90
25939;DHT22;13739;51.172;4.466;2022-09-09T03:38:26;14.90;99.90
25939;DHT22;13739;51.172;4.466;2022-09-09T03:40:53;14.80;99.90
25939;DHT22;13739;51.172;4.466;2022-09-09T03:43:26;14.80;99.90
25939;DHT22;13739;51.172;4.466;2022-09-09T03:45:52;14.80;99.90
25939;DHT22;13739;51.172;4.466;2022-09-09T03:48:19;14.80;99.90
25939;DHT22;13739;51.172;4.466;2022-09-09T03:50:50;14.80;99.90
25939;DHT22;13739;51.172;4.466;2022-09-09T03:53:17;14.90;99.90
25939;DHT22;13739;51.172;4.466;2022-09-09T03:55:46;14.90;99.90
25939;DHT22;13739;51.172;4.466;2022-09-09T03:58:16;14.90;99.90
25939;DHT22;13739;51.172;4.466;2022-09-09T04:00:54;15.00;99.90
25939;DHT22;13739;51.172;4.466;2022-09-09T04:03:20;15.00;99.90
25939;DHT22;13739;51.172;4.466;2022-09-09T04:05:48;15.10;99.90
25939;DHT22;13739;51.172;4.466;2022-09-09T04:08:14;15.10;99.90
25939;DHT22;13739;51.172;4.466;2022-09-09T04:10:40;15.10;99.90
25939;DHT22;13739;51.172;4.466;2022-09-09T04:13:05;15.10;99.90
25939;DHT22;13739;51.172;4.466;2022-09-09T04:15:31;15.10;99.90
25939;DHT22;13739;51.172;4.466;2022-09-09T04:17:57;15.00;99.90
25939;DHT22;13739;51.172;4.466;2022-09-09T04:20:23;15.10;99.90
25939;DHT22;13739;51.172;4.466;2022-09-09T04:22:49;15.10;99.90
25939;DHT22;13739;51.172;4.466;2022-09-09T04:25:15;15.10;99.90
25939;DHT22;13739;51.172;4.466;2022-09-09T04:27:40;15.20;99.90
25939;DHT22;13739;51.172;4.466;2022-09-09T04:30:07;15.20;99.90
25939;DHT22;13739;51.172;4.466;2022-09-09T04:32:36;15.20;99.90
25939;DHT22;13739;51.172;4.466;2022-09-09T04:35:02;15.20;99.90
25939;DHT22;13739;51.172;4.466;2022-09-09T04:37:28;15.30;99.90
25939;DHT22;13739;51.172;4.466;2022-09-09T04:39:54;15.20;99.90
25939;DHT22;13739;51.172;4.466;2022-09-09T04:42:19;15.10;99.90
25939;DHT22;13739;51.172;4.466;2022-09-09T04:44:45;15.20;99.90
25939;DHT22;13739;51.172;4.466;2022-09-09T04:47:11;15.20;99.90
25939;DHT22;13739;51.172;4.466;2022-09-09T04:49:37;15.20;99.90
25939;DHT22;13739;51.172;4.466;2022-09-09T04:52:03;15.20;99.90
25939;DHT22;13739;51.172;4.466;2022-09-09T04:54:29;15.10;99.90
25939;DHT22;13739;51.172;4.466;2022-09-09T04:56:55;15.20;99.90
25939;DHT22;13739;51.172;4.466;2022-09-09T04:59:21;15.10;99.90
25939;DHT22;13739;51.172;4.466;2022-09-09T05:01:48;15.20;99.90
25939;DHT22;13739;51.172;4.466;2022-09-09T05:04:14;15.10;99.90
25939;DHT22;13739;51.172;4.466;2022-09-09T05:06:41;15.20;99.90
25939;DHT22;13739;51.172;4.466;2022-09-09T05:09:08;15.20;99.90
25939;DHT22;13739;51.172;4.466;2022-09-09T05:11:34;15.20;99.90
25939;DHT22;13739;51.172;4.466;2022-09-09T05:14:02;15.20;99.90
25939;DHT22;13739;51.172;4.466;2022-09-09T05:16:28;15.30;99.90
25939;DHT22;13739;51.172;4.466;2022-09-09T05:18:54;15.30;99.90
25939;DHT22;13739;51.172;4.466;2022-09-09T05:21:21;15.30;99.90
25939;DHT22;13739;51.172;4.466;2022-09-09T05:23:48;15.40;99.90
25939;DHT22;13739;51.172;4.466;2022-09-09T05:26:19;15.40;99.90
25939;DHT22;13739;51.172;4.466;2022-09-09T05:28:45;15.30;99.90
25939;DHT22;13739;51.172;4.466;2022-09-09T05:31:12;15.30;99.90
25939;DHT22;13739;51.172;4.466;2022-09-09T05:33:40;15.30;99.90
25939;DHT22;13739;51.172;4.466;2022-09-09T05:36:16;15.40;99.90
25939;DHT22;13739;51.172;4.466;2022-09-09T05:38:43;15.50;99.90
25939;DHT22;13739;51.172;4.466;2022-09-09T05:41:10;15.50;99.90
25939;DHT22;13739;51.172;4.466;2022-09-09T05:43:40;15.60;99.90
25939;DHT22;13739;51.172;4.466;2022-09-09T05:46:11;15.60;99.90
25939;DHT22;13739;51.172;4.466;2022-09-09T05:48:41;15.60;99.90
25939;DHT22;13739;51.172;4.466;2022-09-09T05:51:12;15.70;99.90
25939;DHT22;13739;51.172;4.466;2022-09-09T05:53:41;15.60;99.90
25939;DHT22;13739;51.172;4.466;2022-09-09T05:56:18;15.80;99.90
25939;DHT22;13739;51.172;4.466;2022-09-09T05:58:44;15.90;99.90
25939;DHT22;13739;51.172;4.466;2022-09-09T06:01:20;15.90;99.90
25939;DHT22;13739;51.172;4.466;2022-09-09T06:03:48;15.90;99.90
25939;DHT22;13739;51.172;4.466;2022-09-09T06:06:16;16.00;99.90
25939;DHT22;13739;51.172;4.466;2022-09-09T06:08:44;16.00;99.90
25939;DHT22;13739;51.172;4.466;2022-09-09T06:11:11;15.90;99.90
25939;DHT22;13739;51.172;4.466;2022-09-09T06:13:38;16.00;99.90
25939;DHT22;13739;51.172;4.466;2022-09-09T06:16:18;16.10;99.90
25939;DHT22;13739;51.172;4.466;2022-09-09T06:18:44;16.10;99.90
25939;DHT22;13739;51.172;4.466;2022-09-09T06:21:19;16.00;99.90
25939;DHT22;13739;51.172;4.466;2022-09-09T06:23:45;16.00;99.90
25939;DHT22;13739;51.172;4.466;2022-09-09T06:26:14;16.10;99.90
25939;DHT22;13739;51.172;4.466;2022-09-09T06:28:41;16.20;99.90
25939;DHT22;13739;51.172;4.466;2022-09-09T06:31:12;16.20;99.90
25939;DHT22;13739;51.172;4.466;2022-09-09T06:33:39;16.20;99.90
25939;DHT22;13739;51.172;4.466;2022-09-09T06:36:07;16.30;99.90
25939;DHT22;13739;51.172;4.466;2022-09-09T06:38:35;16.30;99.90
25939;DHT22;13739;51.172;4.466;2022-09-09T06:41:01;16.30;99.90
25939;DHT22;13739;51.172;4.466;2022-09-09T06:43:27;16.40;99.90
25939;DHT22;13739;51.172;4.466;2022-09-09T06:45:55;16.50;99.90
25939;DHT22;13739;51.172;4.466;2022-09-09T06:48:21;16.70;99.90
25939;DHT22;13739;51.172;4.466;2022-09-09T06:50:46;16.60;99.90
25939;DHT22;13739;51.172;4.466;2022-09-09T06:53:15;16.60;99.90
25939;DHT22;13739;51.172;4.466;2022-09-09T06:55:41;16.40;99.90
25939;DHT22;13739;51.172;4.466;2022-09-09T06:58:09;16.40;99.90
25939;DHT22;13739;51.172;4.466;2022-09-09T07:00:35;16.50;99.90
25939;DHT22;13739;51.172;4.466;2022-09-09T07:03:03;16.60;99.90
25939;DHT22;13739;51.172;4.466;2022-09-09T07:05:28;16.60;99.90
25939;DHT22;13739;51.172;4.466;2022-09-09T07:07:54;16.60;99.90
25939;DHT22;13739;51.172;4.466;2022-09-09T07:10:20;16.50;99.90
25939;DHT22;13739;51.172;4.466;2022-09-09T07:12:50;16.70;99.90
25939;DHT22;13739;51.172;4.466;2022-09-09T07:15:17;16.60;99.90
25939;DHT22;13739;51.172;4.466;2022-09-09T07:17:44;16.60;99.90
25939;DHT22;13739;51.172;4.466;2022-09-09T07:20:10;16.70;99.90
25939;DHT22;13739;51.172;4.466;2022-09-09T07:22:36;16.60;99.90
25939;DHT22;13739;51.172;4.466;2022-09-09T07:25:01;16.80;99.90
25939;DHT22;13739;51.172;4.466;2022-09-09T07:27:27;16.80;99.90
25939;DHT22;13739;51.172;4.466;2022-09-09T07:29:53;16.80;99.90
25939;DHT22;13739;51.172;4.466;2022-09-09T07:32:19;16.80;99.90
25939;DHT22;13739;51.172;4.466;2022-09-09T07:34:46;16.70;99.90
25939;DHT22;13739;51.172;4.466;2022-09-09T07:37:12;16.80;99.90
25939;DHT22;13739;51.172;4.466;2022-09-09T07:39:39;16.80;99.90
25939;DHT22;13739;51.172;4.466;2022-09-09T07:42:05;16.70;99.90
25939;DHT22;13739;51.172;4.466;2022-09-09T07:44:31;16.70;99.90
25939;DHT22;13739;51.172;4.466;2022-09-09T07:47:00;16.70;99.90
25939;DHT22;13739;51.172;4.466;2022-09-09T07:49:26;16.80;99.90
25939;DHT22;13739;51.172;4.466;2022-09-09T07:51:52;16.80;99.90
25939;DHT22;13739;51.172;4.466;2022-09-09T07:54:18;16.90;99.90
25939;DHT22;13739;51.172;4.466;2022-09-09T07:56:49;17.00;99.90
25939;DHT22;13739;51.172;4.466;2022-09-09T07:59:16;17.20;99.90
25939;DHT22;13739;51.172;4.466;2022-09-09T08:01:44;17.30;99.90
25939;DHT22;13739;51.172;4.466;2022-09-09T08:04:13;17.20;99.90
25939;DHT22;13739;51.172;4.466;2022-09-09T08:06:56;17.20;99.90
25939;DHT22;13739;51.172;4.466;2022-09-09T08:09:23;17.30;99.90
25939;DHT22;13739;51.172;4.466;2022-09-09T08:11:52;17.30;99.90
25939;DHT22;13739;51.172;4.466;2022-09-09T08:14:18;17.20;99.90
25939;DHT22;13739;51.172;4.466;2022-09-09T08:16:46;17.20;99.90
25939;DHT22;13739;51.172;4.466;2022-09-09T08:19:12;17.30;99.90
25939;DHT22;13739;51.172;4.466;2022-09-09T08:21:39;17.40;99.90
25939;DHT22;13739;51.172;4.466;2022-09-09T08:24:06;17.40;99.90
25939;DHT22;13739;51.172;4.466;2022-09-09T08:26:43;17.30;99.90
25939;DHT22;13739;51.172;4.466;2022-09-09T08:29:10;17.20;99.90
25939;DHT22;13739;51.172;4.466;2022-09-09T08:31:38;17.30;99.90
25939;DHT22;13739;51.172;4.466;2022-09-09T08:34:04;17.30;99.90
25939;DHT22;13739;51.172;4.466;2022-09-09T08:36:33;17.30;99.90
25939;DHT22;13739;51.172;4.466;2022-09-09T08:39:00;17.30;99.90
25939;DHT22;13739;51.172;4.466;2022-09-09T08:52:55;17.40;99.90
25939;DHT22;13739;51.172;4.466;2022-09-09T08:55:42;17.50;99.90
25939;DHT22;13739;51.172;4.466;2022-09-09T08:58:21;17.60;99.90
25939;DHT22;13739;51.172;4.466;2022-09-09T09:03:42;17.50;99.90
25939;DHT22;13739;51.172;4.466;2022-09-09T09:11:22;17.30;99.90
25939;DHT22;13739;51.172;4.466;2022-09-09T09:14:10;17.30;99.90
25939;DHT22;13739;51.172;4.466;2022-09-09T09:19:15;17.30;99.90
25939;DHT22;13739;51.172;4.466;2022-09-09T09:22:25;17.30;99.90
25939;DHT22;13739;51.172;4.466;2022-09-09T09:24:54;17.30;99.90
25939;DHT22;13739;51.172;4.466;2022-09-09T09:30:22;17.20;99.90
25939;DHT22;13739;51.172;4.466;2022-09-09T09:32:55;17.20;99.90
25939;DHT22;13739;51.172;4.466;2022-09-09T09:35:21;17.20;99.90
25939;DHT22;13739;51.172;4.466;2022-09-09T09:37:47;17.10;99.90
25939;DHT22;13739;51.172;4.466;2022-09-09T09:40:16;17.10;99.90
25939;DHT22;13739;51.172;4.466;2022-09-09T09:42:53;17.10;99.90
25939;DHT22;13739;51.172;4.466;2022-09-09T09:45:32;17.20;99.90
25939;DHT22;13739;51.172;4.466;2022-09-09T09:48:19;17.10;99.90
25939;DHT22;13739;51.172;4.466;2022-09-09T09:53:34;17.00;99.90
25939;DHT22;13739;51.172;4.466;2022-09-09T09:56:05;17.10;99.90
25939;DHT22;13739;51.172;4.466;2022-09-09T09:58:54;17.10;99.90
25939;DHT22;13739;51.172;4.466;2022-09-09T10:04:01;17.10;99.90
25939;DHT22;13739;51.172;4.466;2022-09-09T10:06:35;17.10;99.90
25939;DHT22;13739;51.172;4.466;2022-09-09T10:09:03;17.10;99.90
25939;DHT22;13739;51.172;4.466;2022-09-09T10:11:42;17.20;99.90
25939;DHT22;13739;51.172;4.466;2022-09-09T10:22:33;17.20;99.90
25939;DHT22;13739;51.172;4.466;2022-09-09T10:36:31;17.80;99.90
25939;DHT22;13739;51.172;4.466;2022-09-09T10:39:05;17.80;99.90
25939;DHT22;13739;51.172;4.466;2022-09-09T10:41:50;17.70;99.90
25939;DHT22;13739;51.172;4.466;2022-09-09T10:55:44;18.00;99.90
25939;DHT22;13739;51.172;4.466;2022-09-09T10:58:15;18.20;99.90
25939;DHT22;13739;51.172;4.466;2022-09-09T11:00:51;18.10;99.90
25939;DHT22;13739;51.172;4.466;2022-09-09T11:03:25;18.10;99.90
25939;DHT22;13739;51.172;4.466;2022-09-09T11:06:15;18.30;99.90
25939;DHT22;13739;51.172;4.466;2022-09-09T11:08:39;18.30;99.90
25939;DHT22;13739;51.172;4.466;2022-09-09T11:11:20;18.10;99.90
25939;DHT22;13739;51.172;4.466;2022-09-09T11:13:58;18.20;99.90
25939;DHT22;13739;51.172;4.466;2022-09-09T11:19:05;18.30;99.90
25939;DHT22;13739;51.172;4.466;2022-09-09T11:21:40;18.40;99.90
25939;DHT22;13739;51.172;4.466;2022-09-09T11:24:23;18.70;99.90
25939;DHT22;13739;51.172;4.466;2022-09-09T11:26:58;19.00;99.90
25939;DHT22;13739;51.172;4.466;2022-09-09T11:32:42;19.30;99.90
25939;DHT22;13739;51.172;4.466;2022-09-09T11:38:18;19.50;99.90
25939;DHT22;13739;51.172;4.466;2022-09-09T11:40:46;19.60;99.90
25939;DHT22;13739;51.172;4.466;2022-09-09T11:43:20;19.60;99.90
25939;DHT22;13739;51.172;4.466;2022-09-09T11:45:55;19.40;99.90
25939;DHT22;13739;51.172;4.466;2022-09-09T11:48:35;19.40;99.90
25939;DHT22;13739;51.172;4.466;2022-09-09T11:51:02;19.60;99.90
25939;DHT22;13739;51.172;4.466;2022-09-09T11:53:30;19.70;99.90
25939;DHT22;13739;51.172;4.466;2022-09-09T11:56:32;19.80;99.90
25939;DHT22;13739;51.172;4.466;2022-09-09T11:59:04;19.90;99.90
25939;DHT22;13739;51.172;4.466;2022-09-09T12:04:13;20.00;99.90
25939;DHT22;13739;51.172;4.466;2022-09-09T12:09:43;20.00;99.90
25939;DHT22;13739;51.172;4.466;2022-09-09T12:17:25;20.10;99.90
25939;DHT22;13739;51.172;4.466;2022-09-09T12:20:22;20.20;99.90
25939;DHT22;13739;51.172;4.466;2022-09-09T12:28:20;19.90;99.90
25939;DHT22;13739;51.172;4.466;2022-09-09T12:33:38;20.00;99.90
25939;DHT22;13739;51.172;4.466;2022-09-09T12:36:12;20.00;99.90
25939;DHT22;13739;51.172;4.466;2022-09-09T12:38:41;20.00;99.90
25939;DHT22;13739;51.172;4.466;2022-09-09T12:41:22;19.90;99.90
25939;DHT22;13739;51.172;4.466;2022-09-09T12:43:50;19.80;99.90
25939;DHT22;13739;51.172;4.466;2022-09-09T12:46:39;19.70;99.90
25939;DHT22;13739;51.172;4.466;2022-09-09T12:49:24;19.80;99.90
25939;DHT22;13739;51.172;4.466;2022-09-09T12:51:50;19.70;99.90
25939;DHT22;13739;51.172;4.466;2022-09-09T12:54:16;19.60;99.90
25939;DHT22;13739;51.172;4.466;2022-09-09T12:56:46;19.60;99.90
25939;DHT22;13739;51.172;4.466;2022-09-09T12:59:37;19.70;99.90
25939;DHT22;13739;51.172;4.466;2022-09-09T13:02:22;20.10;99.90
25939;DHT22;13739;51.172;4.466;2022-09-09T13:04:49;20.20;99.90
25939;DHT22;13739;51.172;4.466;2022-09-09T13:07:16;20.40;99.90
25939;DHT22;13739;51.172;4.466;2022-09-09T13:09:43;20.60;99.90
25939;DHT22;13739;51.172;4.466;2022-09-09T13:12:20;20.70;99.90
25939;DHT22;13739;51.172;4.466;2022-09-09T13:14:49;20.70;99.90
25939;DHT22;13739;51.172;4.466;2022-09-09T13:17:24;20.70;99.90
25939;DHT22;13739;51.172;4.466;2022-09-09T13:19:52;21.00;99.90
25939;DHT22;13739;51.172;4.466;2022-09-09T13:22:31;20.90;99.90
25939;DHT22;13739;51.172;4.466;2022-09-09T13:25:17;20.80;99.90
25939;DHT22;13739;51.172;4.466;2022-09-09T13:27:53;20.80;99.90
25939;DHT22;13739;51.172;4.466;2022-09-09T13:30:21;20.70;99.90
25939;DHT22;13739;51.172;4.466;2022-09-09T13:36:09;21.00;99.90
25939;DHT22;13739;51.172;4.466;2022-09-09T13:38:58;21.10;99.90
25939;DHT22;13739;51.172;4.466;2022-09-09T13:41:35;21.00;99.90
25939;DHT22;13739;51.172;4.466;2022-09-09T13:44:02;21.00;99.90
25939;DHT22;13739;51.172;4.466;2022-09-09T13:46:36;21.00;99.90
25939;DHT22;13739;51.172;4.466;2022-09-09T13:51:44;21.00;99.90
25939;DHT22;13739;51.172;4.466;2022-09-09T13:54:14;20.90;99.90
25939;DHT22;13739;51.172;4.466;2022-09-09T13:56:41;20.90;99.90
25939;DHT22;13739;51.172;4.466;2022-09-09T13:59:12;20.90;99.90
25939;DHT22;13739;51.172;4.466;2022-09-09T14:01:39;21.00;99.90
25939;DHT22;13739;51.172;4.466;2022-09-09T14:04:05;20.90;99.90
25939;DHT22;13739;51.172;4.466;2022-09-09T14:06:32;20.90;99.90
25939;DHT22;13739;51.172;4.466;2022-09-09T14:08:58;20.80;99.90
25939;DHT22;13739;51.172;4.466;2022-09-09T14:11:24;20.70;99.90
25939;DHT22;13739;51.172;4.466;2022-09-09T14:13:50;20.70;99.90
25939;DHT22;13739;51.172;4.466;2022-09-09T14:16:17;20.70;99.90
25939;DHT22;13739;51.172;4.466;2022-09-09T14:18:43;20.50;99.90
25939;DHT22;13739;51.172;4.466;2022-09-09T14:21:09;20.60;99.90
25939;DHT22;13739;51.172;4.466;2022-09-09T14:23:35;20.60;99.90
25939;DHT22;13739;51.172;4.466;2022-09-09T14:26:01;20.70;99.90
25939;DHT22;13739;51.172;4.466;2022-09-09T14:28:26;20.80;99.90
25939;DHT22;13739;51.172;4.466;2022-09-09T14:30:53;21.00;99.90
25939;DHT22;13739;51.172;4.466;2022-09-09T14:33:19;21.10;99.90
25939;DHT22;13739;51.172;4.466;2022-09-09T14:35:45;21.10;99.90
25939;DHT22;13739;51.172;4.466;2022-09-09T14:38:10;21.10;99.90
25939;DHT22;13739;51.172;4.466;2022-09-09T14:40:37;20.90;99.90
25939;DHT22;13739;51.172;4.466;2022-09-09T14:43:04;20.70;99.90
25939;DHT22;13739;51.172;4.466;2022-09-09T14:45:31;20.50;99.90
25939;DHT22;13739;51.172;4.466;2022-09-09T14:47:56;20.80;99.90
25939;DHT22;13739;51.172;4.466;2022-09-09T14:50:23;20.90;99.90
25939;DHT22;13739;51.172;4.466;2022-09-09T14:52:49;21.10;99.90
25939;DHT22;13739;51.172;4.466;2022-09-09T14:55:16;21.20;99.90
25939;DHT22;13739;51.172;4.466;2022-09-09T14:57:42;21.40;99.90
25939;DHT22;13739;51.172;4.466;2022-09-09T15:00:10;21.40;99.90
25939;DHT22;13739;51.172;4.466;2022-09-09T15:02:36;21.20;99.90
25939;DHT22;13739;51.172;4.466;2022-09-09T15:05:02;21.10;99.90
25939;DHT22;13739;51.172;4.466;2022-09-09T15:07:29;21.00;99.90
25939;DHT22;13739;51.172;4.466;2022-09-09T15:09:57;20.80;99.90
25939;DHT22;13739;51.172;4.466;2022-09-09T15:12:23;20.70;99.90
25939;DHT22;13739;51.172;4.466;2022-09-09T15:14:49;20.60;99.90
25939;DHT22;13739;51.172;4.466;2022-09-09T15:17:16;20.60;99.90
25939;DHT22;13739;51.172;4.466;2022-09-09T15:19:41;20.50;99.90
25939;DHT22;13739;51.172;4.466;2022-09-09T15:22:08;20.40;99.90
25939;DHT22;13739;51.172;4.466;2022-09-09T15:24:34;20.20;99.90
25939;DHT22;13739;51.172;4.466;2022-09-09T15:27:01;20.20;99.90
25939;DHT22;13739;51.172;4.466;2022-09-09T15:29:27;20.20;99.90
25939;DHT22;13739;51.172;4.466;2022-09-09T15:31:56;20.20;99.90
25939;DHT22;13739;51.172;4.466;2022-09-09T15:34:22;20.20;99.90
25939;DHT22;13739;51.172;4.466;2022-09-09T15:36:47;20.30;99.90
25939;DHT22;13739;51.172;4.466;2022-09-09T15:39:17;20.80;99.90
25939;DHT22;13739;51.172;4.466;2022-09-09T15:41:44;21.20;99.90
25939;DHT22;13739;51.172;4.466;2022-09-09T15:44:11;21.00;99.90
25939;DHT22;13739;51.172;4.466;2022-09-09T15:46:45;21.00;99.90
25939;DHT22;13739;51.172;4.466;2022-09-09T15:51:42;20.90;99.90
25939;DHT22;13739;51.172;4.466;2022-09-09T15:54:08;20.50;99.90
25939;DHT22;13739;51.172;4.466;2022-09-09T15:56:34;20.50;99.90
25939;DHT22;13739;51.172;4.466;2022-09-09T15:59:01;20.30;99.90
25939;DHT22;13739;51.172;4.466;2022-09-09T16:01:31;20.20;99.90
25939;DHT22;13739;51.172;4.466;2022-09-09T16:03:58;20.00;99.90
25939;DHT22;13739;51.172;4.466;2022-09-09T16:06:26;19.80;99.90
25939;DHT22;13739;51.172;4.466;2022-09-09T16:08:53;19.80;99.90
25939;DHT22;13739;51.172;4.466;2022-09-09T16:11:22;19.60;99.90
25939;DHT22;13739;51.172;4.466;2022-09-09T16:13:50;19.30;99.90
25939;DHT22;13739;51.172;4.466;2022-09-09T16:16:18;19.30;99.90
25939;DHT22;13739;51.172;4.466;2022-09-09T16:18:53;19.30;99.90
25939;DHT22;13739;51.172;4.466;2022-09-09T16:21:22;19.10;99.90
25939;DHT22;13739;51.172;4.466;2022-09-09T16:23:52;19.20;99.90
25939;DHT22;13739;51.172;4.466;2022-09-09T16:26:19;19.30;99.90
25939;DHT22;13739;51.172;4.466;2022-09-09T16:28:45;19.60;99.90
25939;DHT22;13739;51.172;4.466;2022-09-09T16:31:17;19.70;99.90
25939;DHT22;13739;51.172;4.466;2022-09-09T16:33:43;19.70;99.90
25939;DHT22;13739;51.172;4.466;2022-09-09T16:36:11;19.50;99.90
25939;DHT22;13739;51.172;4.466;2022-09-09T16:38:37;19.60;99.90
25939;DHT22;13739;51.172;4.466;2022-09-09T16:41:04;19.60;99.90
25939;DHT22;13739;51.172;4.466;2022-09-09T16:43:34;19.60;99.90
25939;DHT22;13739;51.172;4.466;2022-09-09T16:46:01;19.60;99.90
25939;DHT22;13739;51.172;4.466;2022-09-09T16:48:32;19.50;99.90
25939;DHT22;13739;51.172;4.466;2022-09-09T16:51:06;19.40;99.90
25939;DHT22;13739;51.172;4.466;2022-09-09T16:53:33;19.30;99.90
25939;DHT22;13739;51.172;4.466;2022-09-09T16:56:11;19.30;99.90
25939;DHT22;13739;51.172;4.466;2022-09-09T16:58:37;19.20;99.90
25939;DHT22;13739;51.172;4.466;2022-09-09T17:01:04;19.20;99.90
25939;DHT22;13739;51.172;4.466;2022-09-09T17:03:31;19.10;99.90
25939;DHT22;13739;51.172;4.466;2022-09-09T17:05:57;19.00;99.90
25939;DHT22;13739;51.172;4.466;2022-09-09T17:08:24;18.80;99.90
25939;DHT22;13739;51.172;4.466;2022-09-09T17:10:49;18.80;99.90
25939;DHT22;13739;51.172;4.466;2022-09-09T17:13:15;18.70;99.90
25939;DHT22;13739;51.172;4.466;2022-09-09T17:15:45;18.50;99.90
25939;DHT22;13739;51.172;4.466;2022-09-09T17:18:12;18.40;99.90
25939;DHT22;13739;51.172;4.466;2022-09-09T17:20:38;18.40;99.90
25939;DHT22;13739;51.172;4.466;2022-09-09T17:23:05;18.40;99.90
25939;DHT22;13739;51.172;4.466;2022-09-09T17:25:31;18.40;99.90
25939;DHT22;13739;51.172;4.466;2022-09-09T17:27:58;18.50;99.90
25939;DHT22;13739;51.172;4.466;2022-09-09T17:30:24;18.50;99.90
25939;DHT22;13739;51.172;4.466;2022-09-09T17:32:49;18.60;99.90
25939;DHT22;13739;51.172;4.466;2022-09-09T17:35:15;18.40;99.90
25939;DHT22;13739;51.172;4.466;2022-09-09T17:37:41;18.30;99.90
25939;DHT22;13739;51.172;4.466;2022-09-09T17:40:07;18.30;99.90
25939;DHT22;13739;51.172;4.466;2022-09-09T17:42:33;18.30;99.90
25939;DHT22;13739;51.172;4.466;2022-09-09T17:45:00;18.50;99.90
25939;DHT22;13739;51.172;4.466;2022-09-09T17:47:26;18.50;99.90
25939;DHT22;13739;51.172;4.466;2022-09-09T17:49:53;18.40;99.90
25939;DHT22;13739;51.172;4.466;2022-09-09T17:52:19;18.30;99.90
25939;DHT22;13739;51.172;4.466;2022-09-09T17:54:45;18.40;99.90
25939;DHT22;13739;51.172;4.466;2022-09-09T17:57:11;18.40;99.90